Kamikawa Maru — JG5687 — position and weather

sailwx.info

Track history (hours):
 
Tides and Currents Weather Stations Pressure Air Temp Water Temp Dewpoint Dewpoint Depression Visibility Wind Speed Wind Dir Waves Ship Positions

Kamikawa Maru

Last reported at 2017-Jul-23 06:31 UTC. Time now 2017-Jul-23 06:30 UTC.
Position N 35°23' E 139°42'.

Length 162 m; draft 6.8 m.

Type: Cargo ship. MMSI: 431101012.

Date/timePositionNaut miles runAvg speedWind from/ knotsBaromVisibWave heightAir tempDewpointWater temp
2017-Jul-23 06:31N 35°23' E 139°42'918.5
2017-Jul-23 06:00N 35°29' E 139°50'816.1
2017-Jul-23 05:30N 35°37' E 139°46'1 0.7
2017-Jul-23 03:34N 35°38' E 139°46'0 0.0
2017-Jul-23 03:07N 35°38' E 139°46'0 0.0
2017-Jul-23 02:43N 35°38' E 139°46'0 0.0
2017-Jul-23 01:49N 35°38' E 139°46'0 0.0
2017-Jul-22 23:49N 35°38' E 139°46'0 0.5
2017-Jul-22 23:31N 35°38' E 139°46'611.2
2017-Jul-22 23:00N 35°33' E 139°50'713.5
2017-Jul-22 22:30N 35°27' E 139°49'714.0
2017-Jul-22 22:01N 35°21' E 139°45'611.3
2017-Jul-22 21:30N 35°15' E 139°47'713.9
2017-Jul-22 21:01N 35°08' E 139°46'815.3
2017-Jul-22 20:31N 35°01' E 139°44'816.2
2017-Jul-22 20:01N 34°53' E 139°47'3415.6
2017-Jul-22 17:50N 35°04' E 140°26'  
2017-Jul-18 13:19N 34°54' E 140°01'719.9
2017-Jul-18 12:58N 34°52' E 139°53'918.9
2017-Jul-18 12:30N 34°56' E 139°43'918.5
2017-Jul-18 12:00N 35°05' E 139°43'917.9
2017-Jul-18 11:30N 35°13' E 139°46'612.9
2017-Jul-18 11:00N 35°19' E 139°43'815.7
2017-Jul-18 10:31N 35°27' E 139°46'815.5
2017-Jul-18 10:00N 35°34' E 139°49'5 8.8
2017-Jul-18 09:28N 35°38' E 139°46'0 0.0
2017-Jul-18 08:52N 35°38' E 139°46'0 0.1
2017-Jul-18 08:16N 35°38' E 139°46'0 0.0
2017-Jul-18 07:04N 35°38' E 139°46'0 0.0
2017-Jul-18 06:34N 35°38' E 139°46'0 0.0
2017-Jul-18 06:28N 35°38' E 139°46'0 0.0
2017-Jul-18 05:52N 35°38' E 139°46'0 0.1
2017-Jul-18 05:22N 35°38' E 139°46'0 0.1
2017-Jul-18 04:58N 35°38' E 139°46'0 0.0
2017-Jul-18 04:28N 35°38' E 139°46'0 0.0
2017-Jul-18 03:58N 35°38' E 139°46'0 0.0
2017-Jul-18 03:28N 35°38' E 139°46'0 0.0
2017-Jul-18 02:58N 35°38' E 139°46'0 0.0
2017-Jul-18 02:28N 35°38' E 139°46'0 0.0
2017-Jul-18 01:58N 35°38' E 139°46'0 0.0
2017-Jul-18 01:28N 35°38' E 139°46'0 0.0
2017-Jul-18 00:55N 35°38' E 139°46'0 0.0
2017-Jul-18 00:19N 35°38' E 139°46'0 0.0
2017-Jul-17 23:56N 35°38' E 139°46'1 1.4
2017-Jul-17 23:30N 35°37' E 139°46'612.6
2017-Jul-17 23:00N 35°33' E 139°51'2 3.5
2017-Jul-17 22:26N 35°32' E 139°53'0 0.0
2017-Jul-17 21:59N 35°32' E 139°53'0 0.0
2017-Jul-17 21:29N 35°32' E 139°53'0 0.1
2017-Jul-17 20:53N 35°32' E 139°53'0 0.1
2017-Jul-17 20:29N 35°32' E 139°53'0 0.0
2017-Jul-17 19:56N 35°32' E 139°53'0 0.0
2017-Jul-17 19:29N 35°32' E 139°53'0 0.0
2017-Jul-17 18:59N 35°32' E 139°53'0 0.0
2017-Jul-17 18:29N 35°32' E 139°53'0 0.0
2017-Jul-17 17:59N 35°32' E 139°53'0 0.0
2017-Jul-17 17:29N 35°32' E 139°53'0 0.0
2017-Jul-17 16:59N 35°32' E 139°53'0 0.0
2017-Jul-17 16:29N 35°32' E 139°53'0 0.0
2017-Jul-17 15:56N 35°32' E 139°53'0 0.1
2017-Jul-17 15:30N 35°32' E 139°53'2 4.1
2017-Jul-17 15:00N 35°30' E 139°52'816.2
2017-Jul-17 14:30N 35°24' E 139°46'612.5
2017-Jul-17 14:00N 35°18' E 139°45'612.6
2017-Jul-17 13:30N 35°12' E 139°47'1019.5
2017-Jul-17 13:00N 35°03' E 139°41'1020.1
2017-Jul-17 12:30N 34°57' E 139°32'1121.2
2017-Jul-17 12:00N 34°50' E 139°21'5 0.2
2017-Jul-16 09:19N 34°54' E 139°25'517.0
2017-Jul-16 09:00N 34°58' E 139°30'918.5
2017-Jul-16 08:30N 35°04' E 139°38'918.7
2017-Jul-16 08:00N 35°11' E 139°45'612.9
2017-Jul-16 07:31N 35°17' E 139°45'714.5
2017-Jul-16 07:01N 35°25' E 139°43'918.6
2017-Jul-16 06:31N 35°32' E 139°51'714.6
2017-Jul-16 06:00N 35°38' E 139°46'0 0.3
2017-Jul-16 05:30N 35°38' E 139°46'0 0.0
2017-Jul-16 05:00N 35°38' E 139°46'0 0.0
2017-Jul-16 04:30N 35°38' E 139°46'0 0.0
2017-Jul-16 04:00N 35°38' E 139°46'0 0.0
2017-Jul-16 03:30N 35°38' E 139°46'0 0.0
2017-Jul-16 03:00N 35°38' E 139°46'0 0.0
2017-Jul-16 02:30N 35°38' E 139°46'0 0.0
2017-Jul-16 01:54N 35°38' E 139°46'0 0.0
2017-Jul-16 01:30N 35°38' E 139°46'0 0.0
2017-Jul-16 01:00N 35°38' E 139°46'0 0.0
2017-Jul-16 00:30N 35°38' E 139°46'0 0.0
2017-Jul-16 00:00N 35°38' E 139°46'0 0.2
2017-Jul-15 23:30N 35°38' E 139°46'510.9
2017-Jul-15 23:00N 35°34' E 139°50'713.6
2017-Jul-15 22:30N 35°27' E 139°49'714.2
2017-Jul-15 22:00N 35°21' E 139°45'611.6
2017-Jul-15 21:30N 35°15' E 139°47'714.3
2017-Jul-15 21:00N 35°08' E 139°46'917.4
2017-Jul-15 20:30N 34°60' E 139°43'  
Track history (hours):
 
Tides and Currents Weather Stations Pressure Air Temp Water Temp Dewpoint Dewpoint Depression Visibility Wind Speed Wind Dir Waves Ship Positions

Kamikawa Maru

Last reported at 2017-Jul-23 06:31 UTC. Time now 2017-Jul-23 06:30 UTC.
Position N 35°23' E 139°42'.

Length 162 m; draft 6.8 m.

Type: Cargo ship. MMSI: 431101012.

Date/timePositionNaut miles runAvg speedWind from/ knotsBaromVisibWave heightAir tempDewpointWater temp
2017-Jul-23 06:31N 35°23' E 139°42'918.5
2017-Jul-23 06:00N 35°29' E 139°50'816.1
2017-Jul-23 05:30N 35°37' E 139°46'1 0.7
2017-Jul-23 03:34N 35°38' E 139°46'0 0.0
2017-Jul-23 03:07N 35°38' E 139°46'0 0.0
2017-Jul-23 02:43N 35°38' E 139°46'0 0.0
2017-Jul-23 01:49N 35°38' E 139°46'0 0.0
2017-Jul-22 23:49N 35°38' E 139°46'0 0.5
2017-Jul-22 23:31N 35°38' E 139°46'611.2
2017-Jul-22 23:00N 35°33' E 139°50'713.5
2017-Jul-22 22:30N 35°27' E 139°49'714.0
2017-Jul-22 22:01N 35°21' E 139°45'611.3
2017-Jul-22 21:30N 35°15' E 139°47'713.9
2017-Jul-22 21:01N 35°08' E 139°46'815.3
2017-Jul-22 20:31N 35°01' E 139°44'816.2
2017-Jul-22 20:01N 34°53' E 139°47'3415.6
2017-Jul-22 17:50N 35°04' E 140°26'  
2017-Jul-18 13:19N 34°54' E 140°01'719.9
2017-Jul-18 12:58N 34°52' E 139°53'918.9
2017-Jul-18 12:30N 34°56' E 139°43'918.5
2017-Jul-18 12:00N 35°05' E 139°43'917.9
2017-Jul-18 11:30N 35°13' E 139°46'612.9
2017-Jul-18 11:00N 35°19' E 139°43'815.7
2017-Jul-18 10:31N 35°27' E 139°46'815.5
2017-Jul-18 10:00N 35°34' E 139°49'5 8.8
2017-Jul-18 09:28N 35°38' E 139°46'0 0.0
2017-Jul-18 08:52N 35°38' E 139°46'0 0.1
2017-Jul-18 08:16N 35°38' E 139°46'0 0.0
2017-Jul-18 07:04N 35°38' E 139°46'0 0.0
2017-Jul-18 06:34N 35°38' E 139°46'0 0.0
2017-Jul-18 06:28N 35°38' E 139°46'0 0.0
2017-Jul-18 05:52N 35°38' E 139°46'0 0.1
2017-Jul-18 05:22N 35°38' E 139°46'0 0.1
2017-Jul-18 04:58N 35°38' E 139°46'0 0.0
2017-Jul-18 04:28N 35°38' E 139°46'0 0.0
2017-Jul-18 03:58N 35°38' E 139°46'0 0.0
2017-Jul-18 03:28N 35°38' E 139°46'0 0.0
2017-Jul-18 02:58N 35°38' E 139°46'0 0.0
2017-Jul-18 02:28N 35°38' E 139°46'0 0.0
2017-Jul-18 01:58N 35°38' E 139°46'0 0.0
2017-Jul-18 01:28N 35°38' E 139°46'0 0.0
2017-Jul-18 00:55N 35°38' E 139°46'0 0.0
2017-Jul-18 00:19N 35°38' E 139°46'0 0.0
2017-Jul-17 23:56N 35°38' E 139°46'1 1.4
2017-Jul-17 23:30N 35°37' E 139°46'612.6
2017-Jul-17 23:00N 35°33' E 139°51'2 3.5
2017-Jul-17 22:26N 35°32' E 139°53'0 0.0
2017-Jul-17 21:59N 35°32' E 139°53'0 0.0
2017-Jul-17 21:29N 35°32' E 139°53'0 0.1
2017-Jul-17 20:53N 35°32' E 139°53'0 0.1
2017-Jul-17 20:29N 35°32' E 139°53'0 0.0
2017-Jul-17 19:56N 35°32' E 139°53'0 0.0
2017-Jul-17 19:29N 35°32' E 139°53'0 0.0
2017-Jul-17 18:59N 35°32' E 139°53'0 0.0
2017-Jul-17 18:29N 35°32' E 139°53'0 0.0
2017-Jul-17 17:59N 35°32' E 139°53'0 0.0
2017-Jul-17 17:29N 35°32' E 139°53'0 0.0
2017-Jul-17 16:59N 35°32' E 139°53'0 0.0
2017-Jul-17 16:29N 35°32' E 139°53'0 0.0
2017-Jul-17 15:56N 35°32' E 139°53'0 0.1
2017-Jul-17 15:30N 35°32' E 139°53'2 4.1
2017-Jul-17 15:00N 35°30' E 139°52'816.2
2017-Jul-17 14:30N 35°24' E 139°46'612.5
2017-Jul-17 14:00N 35°18' E 139°45'612.6
2017-Jul-17 13:30N 35°12' E 139°47'1019.5
2017-Jul-17 13:00N 35°03' E 139°41'1020.1
2017-Jul-17 12:30N 34°57' E 139°32'1121.2
2017-Jul-17 12:00N 34°50' E 139°21'5 0.2
2017-Jul-16 09:19N 34°54' E 139°25'517.0
2017-Jul-16 09:00N 34°58' E 139°30'918.5
2017-Jul-16 08:30N 35°04' E 139°38'918.7
2017-Jul-16 08:00N 35°11' E 139°45'612.9
2017-Jul-16 07:31N 35°17' E 139°45'714.5
2017-Jul-16 07:01N 35°25' E 139°43'918.6
2017-Jul-16 06:31N 35°32' E 139°51'714.6
2017-Jul-16 06:00N 35°38' E 139°46'0 0.3
2017-Jul-16 05:30N 35°38' E 139°46'0 0.0
2017-Jul-16 05:00N 35°38' E 139°46'0 0.0
2017-Jul-16 04:30N 35°38' E 139°46'0 0.0
2017-Jul-16 04:00N 35°38' E 139°46'0 0.0
2017-Jul-16 03:30N 35°38' E 139°46'0 0.0
2017-Jul-16 03:00N 35°38' E 139°46'0 0.0
2017-Jul-16 02:30N 35°38' E 139°46'0 0.0
2017-Jul-16 01:54N 35°38' E 139°46'0 0.0
2017-Jul-16 01:30N 35°38' E 139°46'0 0.0
2017-Jul-16 01:00N 35°38' E 139°46'0 0.0
2017-Jul-16 00:30N 35°38' E 139°46'0 0.0
2017-Jul-16 00:00N 35°38' E 139°46'0 0.2
2017-Jul-15 23:30N 35°38' E 139°46'510.9
2017-Jul-15 23:00N 35°34' E 139°50'713.6
2017-Jul-15 22:30N 35°27' E 139°49'714.2
2017-Jul-15 22:00N 35°21' E 139°45'611.6
2017-Jul-15 21:30N 35°15' E 139°47'714.3
2017-Jul-15 21:00N 35°08' E 139°46'917.4
2017-Jul-15 20:30N 34°60' E 139°43'  

Dump ship's entire track history